createdAt,value
2019-02-19T00:01:18.790Z,43.90
2019-02-19T00:03:46.257Z,43.90
2019-02-19T00:06:13.721Z,43.90
2019-02-19T00:08:41.181Z,43.80
2019-02-19T00:11:08.654Z,43.80
2019-02-19T00:13:36.122Z,43.80
2019-02-19T00:16:03.582Z,43.70
2019-02-19T00:18:31.050Z,43.70
2019-02-19T00:20:58.518Z,43.80
2019-02-19T00:23:25.989Z,43.90
2019-02-19T00:25:53.458Z,43.90
2019-02-19T00:28:20.933Z,43.90
2019-02-19T00:30:48.393Z,43.80
2019-02-19T00:33:15.875Z,43.80
2019-02-19T00:35:43.344Z,43.70
2019-02-19T00:38:10.831Z,43.70
2019-02-19T00:40:38.306Z,43.70
2019-02-19T00:43:05.762Z,44.40
2019-02-19T00:45:33.241Z,43.70
2019-02-19T00:48:00.702Z,43.70
2019-02-19T00:50:28.173Z,43.70
2019-02-19T00:52:55.632Z,43.80
2019-02-19T00:55:23.117Z,43.80
2019-02-19T00:57:50.586Z,43.70
2019-02-19T01:00:18.043Z,43.70
2019-02-19T01:02:45.514Z,43.70
2019-02-19T01:05:12.980Z,43.60
2019-02-19T01:07:40.445Z,43.60
2019-02-19T01:10:07.909Z,43.60
2019-02-19T01:12:35.368Z,43.40
2019-02-19T01:15:02.833Z,43.40
2019-02-19T01:17:30.297Z,43.40
2019-02-19T01:19:57.766Z,43.40
2019-02-19T01:22:25.233Z,43.60
2019-02-19T01:24:52.697Z,43.60
2019-02-19T01:27:20.333Z,43.70
2019-02-19T01:29:47.802Z,43.70
2019-02-19T01:32:15.273Z,43.70
2019-02-19T01:34:42.808Z,43.70
2019-02-19T01:37:10.278Z,43.70
2019-02-19T01:39:37.745Z,43.70
2019-02-19T01:42:05.205Z,43.80
2019-02-19T01:44:32.664Z,43.70
2019-02-19T01:47:00.146Z,43.70
2019-02-19T01:49:48.510Z,43.60
2019-02-19T01:52:15.976Z,43.60
2019-02-19T01:54:43.443Z,43.60
2019-02-19T01:57:10.909Z,43.60
2019-02-19T01:59:38.392Z,43.70
2019-02-19T02:02:05.849Z,43.70
2019-02-19T02:04:33.316Z,43.90
2019-02-19T02:07:00.825Z,43.70
2019-02-19T02:09:28.299Z,43.60
2019-02-19T02:11:55.846Z,43.60
2019-02-19T02:14:23.305Z,43.50
2019-02-19T02:16:50.773Z,43.50
2019-02-19T02:19:18.241Z,43.50
2019-02-19T02:21:45.716Z,43.40
2019-02-19T02:24:13.185Z,43.40
2019-02-19T02:26:40.640Z,43.40
2019-02-19T02:29:08.111Z,43.40
2019-02-19T02:31:35.571Z,43.40
2019-02-19T02:34:03.032Z,43.70
2019-02-19T02:36:30.493Z,43.60
2019-02-19T02:38:57.975Z,44.20
2019-02-19T02:41:25.426Z,43.50
2019-02-19T02:43:52.894Z,43.50
2019-02-19T02:46:20.358Z,43.40
2019-02-19T02:48:47.818Z,43.40
2019-02-19T02:51:15.288Z,43.40
2019-02-19T02:53:42.752Z,43.40
2019-02-19T02:56:10.216Z,43.40
2019-02-19T02:58:38.034Z,43.40
2019-02-19T03:01:05.501Z,43.40
2019-02-19T03:03:32.962Z,43.50
2019-02-19T03:06:18.791Z,43.50
2019-02-19T03:08:46.249Z,43.40
2019-02-19T03:11:13.714Z,43.40
2019-02-19T03:13:41.203Z,43.40
2019-02-19T03:16:08.657Z,43.40
2019-02-19T03:18:36.117Z,43.40
2019-02-19T03:21:03.582Z,43.40
2019-02-19T03:23:31.045Z,43.30
2019-02-19T03:25:58.529Z,43.30
2019-02-19T03:28:25.988Z,43.30
2019-02-19T03:30:53.475Z,43.30
2019-02-19T03:33:20.933Z,43.30
2019-02-19T03:35:48.421Z,43.30
2019-02-19T03:38:15.868Z,43.40
2019-02-19T03:40:43.334Z,43.30
2019-02-19T03:43:10.801Z,43.40
2019-02-19T03:45:38.270Z,43.70
2019-02-19T03:48:05.734Z,43.40
2019-02-19T03:50:33.206Z,43.40
2019-02-19T03:53:00.665Z,43.40
2019-02-19T03:55:28.134Z,43.40
2019-02-19T03:57:55.601Z,43.40
2019-02-19T04:00:23.067Z,43.40
2019-02-19T04:02:50.588Z,43.40
2019-02-19T04:05:18.063Z,43.40
2019-02-19T04:07:45.508Z,43.30
2019-02-19T04:10:12.982Z,43.50
2019-02-19T04:12:40.517Z,43.60
2019-02-19T04:15:07.978Z,43.60
2019-02-19T04:17:35.447Z,43.40
2019-02-19T04:20:02.901Z,43.40
2019-02-19T04:22:30.365Z,43.30
2019-02-19T04:24:57.837Z,43.30
2019-02-19T04:27:25.304Z,43.40
2019-02-19T04:29:52.766Z,43.30
2019-02-19T04:32:20.232Z,43.30
2019-02-19T04:34:47.706Z,43.20
2019-02-19T04:37:15.168Z,43.30
2019-02-19T04:39:42.629Z,43.30
2019-02-19T04:42:10.114Z,43.30
2019-02-19T04:44:37.581Z,43.30
2019-02-19T04:47:05.057Z,43.30
2019-02-19T04:49:32.512Z,43.30
2019-02-19T04:51:59.981Z,43.30
2019-02-19T04:54:27.454Z,43.30
2019-02-19T04:56:54.932Z,43.30
2019-02-19T04:59:22.429Z,43.30
2019-02-19T05:01:49.905Z,43.30
2019-02-19T05:04:17.362Z,43.30
2019-02-19T05:06:44.837Z,43.30
2019-02-19T05:09:12.293Z,43.30
2019-02-19T05:11:39.833Z,43.30
2019-02-19T05:14:07.303Z,43.30
2019-02-19T05:16:40.776Z,43.30
2019-02-19T05:19:03.960Z,43.30
2019-02-19T05:22:57.474Z,43.30
2019-02-19T05:25:24.943Z,43.30
2019-02-19T05:27:52.446Z,43.30
2019-02-19T05:30:19.910Z,43.30
2019-02-19T05:32:47.376Z,43.20
2019-02-19T05:35:14.911Z,43.10
2019-02-19T05:37:42.384Z,43.00
2019-02-19T05:40:09.843Z,43.00
2019-02-19T05:42:37.318Z,43.00
2019-02-19T05:45:06.346Z,42.90
2019-02-19T05:47:33.805Z,43.00
2019-02-19T05:50:01.277Z,43.00
2019-02-19T05:52:28.743Z,43.00
2019-02-19T05:54:56.210Z,43.00
2019-02-19T05:57:23.675Z,42.90
2019-02-19T05:59:51.132Z,43.00
2019-02-19T06:02:18.590Z,42.90
2019-02-19T06:04:46.052Z,43.00
2019-02-19T06:07:13.594Z,43.30
2019-02-19T06:09:41.074Z,43.30
2019-02-19T06:12:08.535Z,43.40
2019-02-19T06:14:36.018Z,43.20
2019-02-19T06:17:03.485Z,43.10
2019-02-19T06:19:30.951Z,43.10
2019-02-19T06:21:58.742Z,43.10
2019-02-19T06:24:26.197Z,43.00
2019-02-19T06:26:53.665Z,43.00
2019-02-19T06:29:21.138Z,42.80
2019-02-19T06:31:48.605Z,42.80
2019-02-19T06:34:16.082Z,42.70
2019-02-19T06:36:43.550Z,42.80
2019-02-19T06:39:11.027Z,42.80
2019-02-19T06:41:38.498Z,42.80
2019-02-19T06:44:05.984Z,42.70
2019-02-19T06:46:33.544Z,42.60
2019-02-19T06:49:01.105Z,42.50
2019-02-19T06:51:28.571Z,42.60
2019-02-19T06:53:56.033Z,42.60
2019-02-19T06:56:23.584Z,42.60
2019-02-19T06:58:51.048Z,42.50
2019-02-19T07:01:20.791Z,42.50
2019-02-19T07:03:49.951Z,42.50
2019-02-19T07:06:17.458Z,42.50
2019-02-19T07:08:44.917Z,42.50
2019-02-19T07:11:12.380Z,42.50
2019-02-19T07:13:39.850Z,42.50
2019-02-19T07:16:07.330Z,43.10
2019-02-19T07:18:34.790Z,42.50
2019-02-19T07:21:02.258Z,42.50
2019-02-19T07:23:29.729Z,42.60
2019-02-19T07:25:57.227Z,42.60
2019-02-19T07:28:24.689Z,42.50
2019-02-19T07:30:52.166Z,42.70
2019-02-19T07:33:19.633Z,42.70
2019-02-19T07:35:47.105Z,42.70
2019-02-19T07:38:14.571Z,42.90
2019-02-19T07:40:42.102Z,43.10
2019-02-19T07:43:09.561Z,43.20
2019-02-19T07:45:37.040Z,43.40
2019-02-19T07:48:04.496Z,43.40
2019-02-19T07:50:31.989Z,43.40
2019-02-19T07:52:59.449Z,43.40
2019-02-19T07:55:27.253Z,43.30
2019-02-19T07:57:54.722Z,43.30
2019-02-19T08:00:22.177Z,43.00
2019-02-19T08:02:49.646Z,43.00
2019-02-19T08:05:17.119Z,43.00
2019-02-19T08:07:44.590Z,43.10
2019-02-19T08:10:12.125Z,43.10
2019-02-19T08:12:39.584Z,43.00
2019-02-19T08:15:08.679Z,43.00
2019-02-19T08:17:36.151Z,43.60
2019-02-19T08:20:04.076Z,43.00
2019-02-19T08:22:31.545Z,43.00
2019-02-19T08:24:59.020Z,43.10
2019-02-19T08:27:26.478Z,43.00
2019-02-19T08:29:53.946Z,43.10
2019-02-19T08:32:21.425Z,43.00
2019-02-19T08:34:48.880Z,43.10
2019-02-19T08:37:16.344Z,43.00
2019-02-19T08:39:43.805Z,43.00
2019-02-19T08:42:11.270Z,43.00
2019-02-19T08:44:38.725Z,43.00
2019-02-19T08:47:06.198Z,43.10
2019-02-19T08:49:33.693Z,43.00
2019-02-19T08:52:01.166Z,43.00
2019-02-19T08:54:28.638Z,43.00
2019-02-19T08:56:56.107Z,43.00
2019-02-19T08:59:23.740Z,43.10
2019-02-19T09:01:51.304Z,42.80
2019-02-19T09:04:18.760Z,42.50
2019-02-19T09:06:46.221Z,42.80
2019-02-19T09:09:13.789Z,42.80
2019-02-19T09:11:41.260Z,42.70
2019-02-19T09:14:08.717Z,43.10
2019-02-19T09:16:36.189Z,43.30
2019-02-19T09:19:03.661Z,43.30
2019-02-19T09:21:31.135Z,43.40
2019-02-19T09:23:58.615Z,43.40
2019-02-19T09:26:26.134Z,44.20
2019-02-19T09:28:53.603Z,44.60
2019-02-19T09:31:21.065Z,44.20
2019-02-19T09:33:48.541Z,44.80
2019-02-19T09:36:15.997Z,44.60
2019-02-19T09:38:43.462Z,44.40
2019-02-19T09:41:10.920Z,44.10
2019-02-19T09:43:38.381Z,44.10
2019-02-19T09:46:05.853Z,44.00
2019-02-19T09:48:33.326Z,44.30
2019-02-19T09:51:00.784Z,44.20
2019-02-19T09:53:28.258Z,44.00
2019-02-19T09:55:55.712Z,43.90
2019-02-19T09:58:23.182Z,43.80
2019-02-19T10:00:50.648Z,43.80
2019-02-19T10:03:18.289Z,43.70
2019-02-19T10:05:45.878Z,43.60
2019-02-19T10:08:13.343Z,43.60
2019-02-19T10:10:40.838Z,43.60
2019-02-19T10:13:08.306Z,43.60
2019-02-19T10:15:35.775Z,43.60
2019-02-19T10:18:09.991Z,43.60
2019-02-19T10:20:32.433Z,43.50
2019-02-19T10:22:59.936Z,43.50
2019-02-19T10:25:27.405Z,43.50
2019-02-19T10:27:54.870Z,43.40
2019-02-19T10:30:22.347Z,43.30
2019-02-19T10:32:49.840Z,43.30
2019-02-19T10:35:17.321Z,43.30
2019-02-19T10:37:44.808Z,43.30
2019-02-19T10:40:13.731Z,43.50
2019-02-19T10:42:41.196Z,43.40
2019-02-19T10:45:10.437Z,43.30
2019-02-19T10:47:37.897Z,43.30
2019-02-19T10:50:07.006Z,43.40
2019-02-19T10:52:34.463Z,43.40
2019-02-19T10:55:01.929Z,43.30
2019-02-19T10:57:29.389Z,43.30
2019-02-19T10:59:56.930Z,43.40
2019-02-19T11:02:24.398Z,43.30
2019-02-19T11:04:51.887Z,43.40
2019-02-19T11:07:19.354Z,43.30
2019-02-19T11:09:46.886Z,43.30
2019-02-19T11:12:14.351Z,43.40
2019-02-19T11:14:41.809Z,43.40
2019-02-19T11:17:09.284Z,43.40
2019-02-19T11:19:36.750Z,43.30
2019-02-19T11:22:04.240Z,43.30
2019-02-19T11:24:31.727Z,43.30
2019-02-19T11:26:59.213Z,43.60
2019-02-19T11:29:26.704Z,43.30
2019-02-19T11:31:54.250Z,43.20
2019-02-19T11:34:21.732Z,43.20
2019-02-19T11:36:49.517Z,43.20
2019-02-19T11:39:17.001Z,43.30
2019-02-19T11:41:44.457Z,43.30
2019-02-19T11:44:12.009Z,43.30
2019-02-19T11:46:39.610Z,43.30
2019-02-19T11:49:07.084Z,43.30
2019-02-19T11:51:34.574Z,43.30
2019-02-19T11:54:02.043Z,43.30
2019-02-19T11:56:29.510Z,43.30
2019-02-19T11:58:57.070Z,43.30
2019-02-19T12:01:24.632Z,43.30
2019-02-19T12:03:52.097Z,43.30
2019-02-19T12:06:19.641Z,43.30
2019-02-19T12:08:47.081Z,43.30
2019-02-19T12:11:14.540Z,43.30
2019-02-19T12:13:42.015Z,43.30
2019-02-19T12:16:09.476Z,43.30
2019-02-19T12:18:45.604Z,43.30
2019-02-19T12:21:06.122Z,43.30
2019-02-19T12:23:33.597Z,43.40
2019-02-19T12:26:01.076Z,43.50
2019-02-19T12:28:28.766Z,43.50
2019-02-19T12:30:56.270Z,43.40
2019-02-19T12:33:23.749Z,43.40
2019-02-19T12:35:51.213Z,43.40
2019-02-19T12:38:18.682Z,43.30
2019-02-19T12:40:46.138Z,43.30
2019-02-19T12:43:13.610Z,43.30
2019-02-19T12:45:41.078Z,43.30
2019-02-19T12:48:08.547Z,43.30
2019-02-19T12:50:36.078Z,43.70
2019-02-19T12:53:03.553Z,43.90
2019-02-19T12:55:31.013Z,43.70
2019-02-19T12:57:58.480Z,43.80
2019-02-19T13:00:25.954Z,43.80
2019-02-19T13:02:53.426Z,43.60
2019-02-19T13:05:21.161Z,43.60
2019-02-19T13:07:48.640Z,43.60
2019-02-19T13:10:16.101Z,43.60
2019-02-19T13:12:43.571Z,43.30
2019-02-19T13:15:12.724Z,43.30
2019-02-19T13:17:40.190Z,43.30
2019-02-19T13:20:14.931Z,43.30
2019-02-19T13:22:42.603Z,43.30
2019-02-19T13:25:10.638Z,43.30
2019-02-19T13:27:38.098Z,43.10
2019-02-19T13:30:07.569Z,43.10
2019-02-19T13:32:35.186Z,43.10
2019-02-19T13:35:04.757Z,43.10
2019-02-19T13:37:32.245Z,43.20
2019-02-19T13:39:59.724Z,43.20
2019-02-19T13:42:27.201Z,43.10
2019-02-19T13:44:54.665Z,43.00
2019-02-19T13:47:22.130Z,42.90
2019-02-19T13:49:49.607Z,43.00
2019-02-19T13:52:22.565Z,43.00
2019-02-19T13:54:48.367Z,42.90
2019-02-19T13:57:15.827Z,42.90
2019-02-19T13:59:43.293Z,42.80
2019-02-19T14:02:10.755Z,42.80
2019-02-19T14:04:38.224Z,43.30
2019-02-19T14:07:05.683Z,43.30
2019-02-19T14:09:33.156Z,43.30
2019-02-19T14:12:00.673Z,43.30
2019-02-19T14:14:32.768Z,43.30
2019-02-19T14:17:00.494Z,43.30
2019-02-19T14:19:32.689Z,43.30
2019-02-19T14:22:04.733Z,43.30
2019-02-19T14:24:42.633Z,43.30
2019-02-19T14:27:11.743Z,43.30
2019-02-19T14:29:59.263Z,43.40
2019-02-19T14:32:40.684Z,43.40
2019-02-19T14:35:10.067Z,43.50
2019-02-19T14:37:41.828Z,43.50
2019-02-19T14:40:10.990Z,43.50
2019-02-19T14:42:45.997Z,43.50
2019-02-19T14:45:30.503Z,43.60
2019-02-19T14:48:17.622Z,43.50
2019-02-19T14:50:49.431Z,43.50
2019-02-19T14:53:21.175Z,43.50
2019-02-19T14:56:02.553Z,43.60
2019-02-19T14:58:43.980Z,43.60
2019-02-19T15:01:18.600Z,44.20
2019-02-19T15:03:53.458Z,43.60
2019-02-19T15:06:39.037Z,43.40
2019-02-19T15:09:26.278Z,43.40
2019-02-19T15:11:55.390Z,43.30
2019-02-19T15:14:30.416Z,43.30
2019-02-19T15:19:55.274Z,43.50
2019-02-19T15:22:24.441Z,43.40
2019-02-19T15:24:59.594Z,43.40
2019-02-19T15:27:45.237Z,43.40
2019-02-19T15:30:32.569Z,43.60
2019-02-19T15:33:18.223Z,43.60
2019-02-19T15:36:05.746Z,43.60
2019-02-19T15:38:34.850Z,43.60
2019-02-19T15:41:09.730Z,43.60
2019-02-19T15:43:38.940Z,43.70
2019-02-19T15:46:24.650Z,43.60
2019-02-19T15:49:10.241Z,43.60
2019-02-19T15:51:51.376Z,43.60
2019-02-19T15:54:23.497Z,44.00
2019-02-19T15:57:07.474Z,43.80
2019-02-19T15:59:42.321Z,43.80
2019-02-19T16:02:24.013Z,43.70
2019-02-19T16:05:09.654Z,43.70
2019-02-19T16:07:44.532Z,43.70
2019-02-19T16:10:13.647Z,43.80
2019-02-19T16:13:00.922Z,43.70
2019-02-19T16:15:30.025Z,43.60
2019-02-19T16:18:05.186Z,43.60
2019-02-19T16:20:34.302Z,43.60
2019-02-19T16:23:03.422Z,43.50
2019-02-19T16:25:47.761Z,43.40
2019-02-19T16:28:16.869Z,43.50
2019-02-19T16:31:04.117Z,43.40
2019-02-19T16:33:33.221Z,43.60
2019-02-19T16:36:02.347Z,43.50
2019-02-19T16:38:34.278Z,43.60
2019-02-19T16:41:03.377Z,43.60
2019-02-19T16:43:50.625Z,43.60
2019-02-19T16:46:26.023Z,43.70
2019-02-19T16:48:58.091Z,43.70
2019-02-19T16:51:32.870Z,43.80
2019-02-19T16:54:02.014Z,43.70
2019-02-19T16:56:43.177Z,43.60
2019-02-19T16:59:15.038Z,43.70
2019-02-19T17:02:00.952Z,43.60
2019-02-19T17:04:42.134Z,43.60
2019-02-19T17:07:11.282Z,43.80
2019-02-19T17:09:49.341Z,44.50
2019-02-19T17:15:22.258Z,44.80
2019-02-19T17:17:51.366Z,44.50
2019-02-19T17:20:29.178Z,44.40
2019-02-19T17:23:13.285Z,44.20
2019-02-19T17:26:00.800Z,44.30
2019-02-19T17:28:29.977Z,47.40
2019-02-19T17:31:15.613Z,47.10
2019-02-19T17:33:53.818Z,46.70
2019-02-19T17:36:39.567Z,45.80
2019-02-19T17:39:23.757Z,45.90
2019-02-19T17:41:52.863Z,45.80
2019-02-19T17:44:22.270Z,45.80
2019-02-19T17:46:57.304Z,45.80
2019-02-19T17:49:38.234Z,45.80
2019-02-19T17:52:13.340Z,45.80
2019-02-19T17:55:00.788Z,46.00
2019-02-19T17:57:48.206Z,45.50
2019-02-19T18:00:23.498Z,45.50
2019-02-19T18:02:55.597Z,45.40
2019-02-19T18:05:27.648Z,45.30
2019-02-19T18:08:08.934Z,45.20
2019-02-19T18:10:40.793Z,45.10
2019-02-19T18:13:16.873Z,45.10
2019-02-19T18:15:48.401Z,45.10
2019-02-19T18:18:29.602Z,45.10
2019-02-19T18:20:57.071Z,45.00
2019-02-19T18:23:24.541Z,44.90
2019-02-19T18:25:52.008Z,44.90
2019-02-19T18:28:19.479Z,44.90
2019-02-19T18:30:46.961Z,44.90
2019-02-19T18:33:14.426Z,44.90
2019-02-19T18:35:41.901Z,44.70
2019-02-19T18:38:09.349Z,44.70
2019-02-19T18:40:36.815Z,44.70
2019-02-19T18:43:04.307Z,44.70
2019-02-19T18:45:31.829Z,44.70
2019-02-19T18:47:59.306Z,44.70
2019-02-19T18:50:26.764Z,44.70
2019-02-19T18:52:54.258Z,44.70
2019-02-19T18:55:21.753Z,44.70
2019-02-19T18:57:49.261Z,44.80
2019-02-19T19:00:16.797Z,44.80
2019-02-19T19:02:44.274Z,44.90
2019-02-19T19:05:11.738Z,45.00
2019-02-19T19:07:39.202Z,44.80
2019-02-19T19:10:08.298Z,44.70
2019-02-19T19:12:35.758Z,44.80
2019-02-19T19:15:03.791Z,44.70
2019-02-19T19:17:31.249Z,44.70
2019-02-19T19:19:58.734Z,44.80
2019-02-19T19:22:26.198Z,44.90
2019-02-19T19:24:53.717Z,45.00
2019-02-19T19:27:21.253Z,45.10
2019-02-19T19:29:48.713Z,45.10
2019-02-19T19:32:16.463Z,45.10
2019-02-19T19:34:43.924Z,45.00
2019-02-19T19:37:11.395Z,44.90
2019-02-19T19:39:38.862Z,44.90
2019-02-19T19:42:06.929Z,44.90
2019-02-19T19:44:34.718Z,44.80
2019-02-19T19:47:02.184Z,44.80
2019-02-19T19:49:29.669Z,44.80
2019-02-19T19:51:57.130Z,44.90
2019-02-19T19:54:24.721Z,45.30
2019-02-19T19:56:52.270Z,45.60
2019-02-19T19:59:19.843Z,45.40
2019-02-19T20:01:47.307Z,45.20
2019-02-19T20:04:15.011Z,45.20
2019-02-19T20:06:42.485Z,45.10
2019-02-19T20:09:09.943Z,45.00
2019-02-19T20:11:37.536Z,45.00
2019-02-19T20:14:05.140Z,45.10
2019-02-19T20:16:32.743Z,44.90
2019-02-19T20:19:00.273Z,44.80
2019-02-19T20:21:27.724Z,45.40
2019-02-19T20:23:55.521Z,45.00
2019-02-19T20:26:22.981Z,45.10
2019-02-19T20:28:50.450Z,45.30
2019-02-19T20:31:17.918Z,45.20
2019-02-19T20:33:45.490Z,44.90
2019-02-19T20:36:12.953Z,44.90
2019-02-19T20:38:40.419Z,44.90
2019-02-19T20:41:07.957Z,44.90
2019-02-19T20:43:35.420Z,44.80
2019-02-19T20:46:04.133Z,44.70
2019-02-19T20:48:31.598Z,44.60
2019-02-19T20:50:59.057Z,44.70
2019-02-19T20:53:26.578Z,44.70
2019-02-19T20:55:54.150Z,44.90
2019-02-19T20:58:21.606Z,45.10
2019-02-19T21:00:49.068Z,45.00
2019-02-19T21:03:16.533Z,45.00
2019-02-19T21:05:43.990Z,45.20
2019-02-19T21:08:11.499Z,45.20
2019-02-19T21:10:38.953Z,45.20
2019-02-19T21:13:06.418Z,45.20
2019-02-19T21:15:33.890Z,45.10
2019-02-19T21:18:01.363Z,45.00
2019-02-19T21:20:28.827Z,44.90
2019-02-19T21:22:56.303Z,44.80
2019-02-19T21:25:30.843Z,44.70
2019-02-19T21:27:52.957Z,44.70
2019-02-19T21:30:20.420Z,44.70
2019-02-19T21:32:47.969Z,44.60
2019-02-19T21:35:15.432Z,44.90
2019-02-19T21:37:42.900Z,44.80
2019-02-19T21:40:12.004Z,44.80
2019-02-19T21:42:39.472Z,44.80
2019-02-19T21:45:08.570Z,44.70
2019-02-19T21:47:36.046Z,44.70
2019-02-19T21:50:04.877Z,44.60
2019-02-19T21:52:32.345Z,44.60
2019-02-19T21:54:59.805Z,44.60
2019-02-19T21:57:27.272Z,44.60
2019-02-19T21:59:54.735Z,44.50
2019-02-19T22:02:22.214Z,44.50
2019-02-19T22:04:49.696Z,45.20
2019-02-19T22:07:17.141Z,44.50
2019-02-19T22:09:44.609Z,44.70
2019-02-19T22:12:12.065Z,44.70
2019-02-19T22:14:39.528Z,44.60
2019-02-19T22:17:06.993Z,44.60
2019-02-19T22:19:34.449Z,44.60
2019-02-19T22:22:03.857Z,44.50
2019-02-19T22:24:34.941Z,44.40
2019-02-19T22:27:02.980Z,44.30
2019-02-19T22:29:30.462Z,44.30
2019-02-19T22:31:57.916Z,44.20
2019-02-19T22:34:25.404Z,44.10
2019-02-19T22:36:52.848Z,44.20
2019-02-19T22:39:20.662Z,44.30
2019-02-19T22:41:48.118Z,44.30
2019-02-19T22:44:15.593Z,44.30
2019-02-19T22:46:43.048Z,44.20
2019-02-19T22:49:10.522Z,44.20
2019-02-19T22:51:37.985Z,44.10
2019-02-19T22:54:09.786Z,44.10
2019-02-19T22:56:37.922Z,44.10
2019-02-19T22:59:05.383Z,44.10
2019-02-19T23:01:34.480Z,44.10
2019-02-19T23:04:01.957Z,44.00
2019-02-19T23:06:29.481Z,44.10
2019-02-19T23:08:57.228Z,44.30
2019-02-19T23:11:24.693Z,44.20
2019-02-19T23:13:52.221Z,44.20
2019-02-19T23:16:19.704Z,44.30
2019-02-19T23:18:47.161Z,44.30
2019-02-19T23:21:14.620Z,44.20
2019-02-19T23:23:42.085Z,44.30
2019-02-19T23:26:09.562Z,44.30
2019-02-19T23:28:37.030Z,44.20
2019-02-19T23:31:04.501Z,44.30
2019-02-19T23:33:31.960Z,44.10
2019-02-19T23:36:01.073Z,44.10
2019-02-19T23:38:28.534Z,44.10
2019-02-19T23:40:56.043Z,44.70
2019-02-19T23:43:23.505Z,43.70
2019-02-19T23:45:51.336Z,44.10
2019-02-19T23:48:18.796Z,44.20
2019-02-19T23:50:46.285Z,44.20
2019-02-19T23:53:13.740Z,44.10
2019-02-19T23:55:41.206Z,44.00
2019-02-19T23:58:08.670Z,43.90
